sensor_id;sensor_type;location;lat;lon;timestamp;temperature;humidity
12115;DHT22;6121;49.810;6.418;2023-03-15T00:00:43;1.70;99.90
12115;DHT22;6121;49.810;6.418;2023-03-15T00:03:10;1.60;99.90
12115;DHT22;6121;49.810;6.418;2023-03-15T00:05:36;1.60;99.90
12115;DHT22;6121;49.810;6.418;2023-03-15T00:08:02;1.60;99.90
12115;DHT22;6121;49.810;6.418;2023-03-15T00:10:29;1.70;99.90
12115;DHT22;6121;49.810;6.418;2023-03-15T00:12:54;1.60;99.90
12115;DHT22;6121;49.810;6.418;2023-03-15T00:15:21;1.60;99.90
12115;DHT22;6121;49.810;6.418;2023-03-15T00:17:47;1.30;99.90
12115;DHT22;6121;49.810;6.418;2023-03-15T00:20:13;1.30;99.90
12115;DHT22;6121;49.810;6.418;2023-03-15T00:22:44;1.20;99.90
12115;DHT22;6121;49.810;6.418;2023-03-15T00:25:10;1.20;99.90
12115;DHT22;6121;49.810;6.418;2023-03-15T00:27:36;1.10;99.90
12115;DHT22;6121;49.810;6.418;2023-03-15T00:30:02;1.20;99.90
12115;DHT22;6121;49.810;6.418;2023-03-15T00:32:30;1.20;99.90
12115;DHT22;6121;49.810;6.418;2023-03-15T00:34:57;0.90;99.90
12115;DHT22;6121;49.810;6.418;2023-03-15T00:37:22;1.40;99.90
12115;DHT22;6121;49.810;6.418;2023-03-15T00:39:50;1.00;99.90
12115;DHT22;6121;49.810;6.418;2023-03-15T00:42:18;1.00;99.90
12115;DHT22;6121;49.810;6.418;2023-03-15T00:44:44;1.00;99.90
12115;DHT22;6121;49.810;6.418;2023-03-15T00:47:10;1.10;99.90
12115;DHT22;6121;49.810;6.418;2023-03-15T00:49:37;1.10;99.90
12115;DHT22;6121;49.810;6.418;2023-03-15T00:52:05;1.10;99.90
12115;DHT22;6121;49.810;6.418;2023-03-15T00:54:31;1.00;99.90
12115;DHT22;6121;49.810;6.418;2023-03-15T00:57:00;0.90;99.90
12115;DHT22;6121;49.810;6.418;2023-03-15T00:59:31;0.90;99.90
12115;DHT22;6121;49.810;6.418;2023-03-15T01:02:05;0.90;99.90
12115;DHT22;6121;49.810;6.418;2023-03-15T01:04:31;1.00;99.90
12115;DHT22;6121;49.810;6.418;2023-03-15T01:06:57;1.20;99.90
12115;DHT22;6121;49.810;6.418;2023-03-15T01:09:24;1.10;99.90
12115;DHT22;6121;49.810;6.418;2023-03-15T01:11:50;1.00;99.90
12115;DHT22;6121;49.810;6.418;2023-03-15T01:14:16;1.00;99.90
12115;DHT22;6121;49.810;6.418;2023-03-15T01:16:44;1.00;99.90
12115;DHT22;6121;49.810;6.418;2023-03-15T01:19:13;1.00;99.90
12115;DHT22;6121;49.810;6.418;2023-03-15T01:21:39;1.00;99.90
12115;DHT22;6121;49.810;6.418;2023-03-15T01:24:05;1.20;99.90
12115;DHT22;6121;49.810;6.418;2023-03-15T01:26:31;1.10;99.90
12115;DHT22;6121;49.810;6.418;2023-03-15T01:28:57;0.90;99.90
12115;DHT22;6121;49.810;6.418;2023-03-15T01:31:27;0.70;99.90
12115;DHT22;6121;49.810;6.418;2023-03-15T01:33:55;0.90;99.90
12115;DHT22;6121;49.810;6.418;2023-03-15T01:36:22;0.90;99.90
12115;DHT22;6121;49.810;6.418;2023-03-15T01:38:49;1.00;99.90
12115;DHT22;6121;49.810;6.418;2023-03-15T01:41:19;1.10;99.90
12115;DHT22;6121;49.810;6.418;2023-03-15T01:43:44;1.20;99.90
12115;DHT22;6121;49.810;6.418;2023-03-15T01:46:28;1.30;99.90
12115;DHT22;6121;49.810;6.418;2023-03-15T01:49:15;1.30;99.90
12115;DHT22;6121;49.810;6.418;2023-03-15T01:52:03;1.20;99.90
12115;DHT22;6121;49.810;6.418;2023-03-15T01:54:53;1.20;99.90
12115;DHT22;6121;49.810;6.418;2023-03-15T01:57:31;1.30;99.90
12115;DHT22;6121;49.810;6.418;2023-03-15T02:00:06;1.30;99.90
12115;DHT22;6121;49.810;6.418;2023-03-15T02:02:46;1.40;99.90
12115;DHT22;6121;49.810;6.418;2023-03-15T02:05:23;1.40;99.90
12115;DHT22;6121;49.810;6.418;2023-03-15T02:07:50;1.50;99.90
12115;DHT22;6121;49.810;6.418;2023-03-15T02:10:46;1.40;99.90
12115;DHT22;6121;49.810;6.418;2023-03-15T02:13:14;1.50;99.90
12115;DHT22;6121;49.810;6.418;2023-03-15T02:15:41;1.50;99.90
12115;DHT22;6121;49.810;6.418;2023-03-15T02:18:15;1.60;99.90
12115;DHT22;6121;49.810;6.418;2023-03-15T02:23:33;1.60;99.90
12115;DHT22;6121;49.810;6.418;2023-03-15T02:28:34;1.40;99.90
12115;DHT22;6121;49.810;6.418;2023-03-15T02:30:59;1.60;99.90
12115;DHT22;6121;49.810;6.418;2023-03-15T02:33:44;1.40;99.90
12115;DHT22;6121;49.810;6.418;2023-03-15T02:38:41;1.50;99.90
12115;DHT22;6121;49.810;6.418;2023-03-15T02:41:07;1.50;99.90
12115;DHT22;6121;49.810;6.418;2023-03-15T02:43:34;1.40;99.90
12115;DHT22;6121;49.810;6.418;2023-03-15T02:46:01;1.30;99.90
12115;DHT22;6121;49.810;6.418;2023-03-15T02:48:30;1.40;99.90
12115;DHT22;6121;49.810;6.418;2023-03-15T02:50:58;1.30;99.90
12115;DHT22;6121;49.810;6.418;2023-03-15T02:53:24;1.40;99.90
12115;DHT22;6121;49.810;6.418;2023-03-15T02:55:50;1.50;99.90
12115;DHT22;6121;49.810;6.418;2023-03-15T02:58:16;1.40;99.90
12115;DHT22;6121;49.810;6.418;2023-03-15T03:00:42;1.20;99.90
12115;DHT22;6121;49.810;6.418;2023-03-15T03:03:08;1.20;99.90
12115;DHT22;6121;49.810;6.418;2023-03-15T03:05:33;1.30;99.90
12115;DHT22;6121;49.810;6.418;2023-03-15T03:07:59;1.30;99.90
12115;DHT22;6121;49.810;6.418;2023-03-15T03:10:27;1.10;99.90
12115;DHT22;6121;49.810;6.418;2023-03-15T03:12:56;1.10;99.90
12115;DHT22;6121;49.810;6.418;2023-03-15T03:15:29;1.10;99.90
12115;DHT22;6121;49.810;6.418;2023-03-15T03:17:55;1.20;99.90
12115;DHT22;6121;49.810;6.418;2023-03-15T03:20:22;1.30;99.90
12115;DHT22;6121;49.810;6.418;2023-03-15T03:22:48;1.30;99.90
12115;DHT22;6121;49.810;6.418;2023-03-15T03:25:16;1.20;99.90
12115;DHT22;6121;49.810;6.418;2023-03-15T03:27:42;1.20;99.90
12115;DHT22;6121;49.810;6.418;2023-03-15T03:30:12;1.20;99.90
12115;DHT22;6121;49.810;6.418;2023-03-15T03:32:42;1.10;99.90
12115;DHT22;6121;49.810;6.418;2023-03-15T03:35:09;1.10;99.90
12115;DHT22;6121;49.810;6.418;2023-03-15T03:37:35;1.00;99.90
12115;DHT22;6121;49.810;6.418;2023-03-15T03:40:06;1.10;99.90
12115;DHT22;6121;49.810;6.418;2023-03-15T03:42:34;1.10;99.90
12115;DHT22;6121;49.810;6.418;2023-03-15T03:45:00;1.20;99.90
12115;DHT22;6121;49.810;6.418;2023-03-15T03:47:31;1.10;99.90
12115;DHT22;6121;49.810;6.418;2023-03-15T03:49:58;1.10;99.90
12115;DHT22;6121;49.810;6.418;2023-03-15T03:52:25;1.00;99.90
12115;DHT22;6121;49.810;6.418;2023-03-15T03:54:54;1.10;99.90
12115;DHT22;6121;49.810;6.418;2023-03-15T03:57:19;1.00;99.90
12115;DHT22;6121;49.810;6.418;2023-03-15T03:59:45;1.20;99.90
12115;DHT22;6121;49.810;6.418;2023-03-15T04:02:11;1.10;99.90
12115;DHT22;6121;49.810;6.418;2023-03-15T04:04:41;1.10;99.90
12115;DHT22;6121;49.810;6.418;2023-03-15T04:07:12;1.30;99.90
12115;DHT22;6121;49.810;6.418;2023-03-15T04:09:39;1.50;99.90
12115;DHT22;6121;49.810;6.418;2023-03-15T04:12:06;1.40;99.90
12115;DHT22;6121;49.810;6.418;2023-03-15T04:14:34;1.60;99.90
12115;DHT22;6121;49.810;6.418;2023-03-15T04:17:00;1.50;99.90
12115;DHT22;6121;49.810;6.418;2023-03-15T04:19:29;1.40;99.90
12115;DHT22;6121;49.810;6.418;2023-03-15T04:21:55;1.50;99.90
12115;DHT22;6121;49.810;6.418;2023-03-15T04:24:53;1.50;99.90
12115;DHT22;6121;49.810;6.418;2023-03-15T04:27:48;1.40;99.90
12115;DHT22;6121;49.810;6.418;2023-03-15T04:30:41;1.40;99.90
12115;DHT22;6121;49.810;6.418;2023-03-15T04:33:30;1.50;99.90
12115;DHT22;6121;49.810;6.418;2023-03-15T04:36:03;1.70;99.90
12115;DHT22;6121;49.810;6.418;2023-03-15T04:38:54;1.80;99.90
12115;DHT22;6121;49.810;6.418;2023-03-15T04:41:49;1.80;99.90
12115;DHT22;6121;49.810;6.418;2023-03-15T04:44:23;1.90;99.90
12115;DHT22;6121;49.810;6.418;2023-03-15T04:47:09;1.70;99.90
12115;DHT22;6121;49.810;6.418;2023-03-15T04:50:07;1.80;99.90
12115;DHT22;6121;49.810;6.418;2023-03-15T04:52:59;1.80;99.90
12115;DHT22;6121;49.810;6.418;2023-03-15T04:55:49;1.80;99.90
12115;DHT22;6121;49.810;6.418;2023-03-15T04:58:38;1.80;99.90
12115;DHT22;6121;49.810;6.418;2023-03-15T05:01:28;1.70;99.90
12115;DHT22;6121;49.810;6.418;2023-03-15T05:04:08;1.80;99.90
12115;DHT22;6121;49.810;6.418;2023-03-15T05:06:54;1.80;99.90
12115;DHT22;6121;49.810;6.418;2023-03-15T05:09:43;1.80;99.90
12115;DHT22;6121;49.810;6.418;2023-03-15T05:12:43;1.70;99.90
12115;DHT22;6121;49.810;6.418;2023-03-15T05:15:26;1.80;99.90
12115;DHT22;6121;49.810;6.418;2023-03-15T05:18:10;1.80;99.90
12115;DHT22;6121;49.810;6.418;2023-03-15T05:20:47;2.00;99.90
12115;DHT22;6121;49.810;6.418;2023-03-15T05:23:16;2.00;99.90
12115;DHT22;6121;49.810;6.418;2023-03-15T05:25:52;1.90;99.90
12115;DHT22;6121;49.810;6.418;2023-03-15T05:28:37;1.90;99.90
12115;DHT22;6121;49.810;6.418;2023-03-15T05:31:22;1.80;99.90
12115;DHT22;6121;49.810;6.418;2023-03-15T05:34:18;1.80;99.90
12115;DHT22;6121;49.810;6.418;2023-03-15T05:36:44;2.00;99.90
12115;DHT22;6121;49.810;6.418;2023-03-15T05:39:26;2.10;99.90
12115;DHT22;6121;49.810;6.418;2023-03-15T05:42:10;2.00;99.90
12115;DHT22;6121;49.810;6.418;2023-03-15T05:44:55;2.10;99.90
12115;DHT22;6121;49.810;6.418;2023-03-15T05:47:53;2.00;99.90
12115;DHT22;6121;49.810;6.418;2023-03-15T05:50:58;1.90;99.90
12115;DHT22;6121;49.810;6.418;2023-03-15T05:53:53;2.00;99.90
12115;DHT22;6121;49.810;6.418;2023-03-15T05:56:36;2.00;99.90
12115;DHT22;6121;49.810;6.418;2023-03-15T05:59:13;2.10;99.90
12115;DHT22;6121;49.810;6.418;2023-03-15T06:02:10;2.20;99.90
12115;DHT22;6121;49.810;6.418;2023-03-15T06:04:44;2.20;99.90
12115;DHT22;6121;49.810;6.418;2023-03-15T06:07:15;2.20;99.90
12115;DHT22;6121;49.810;6.418;2023-03-15T06:09:40;2.20;99.90
12115;DHT22;6121;49.810;6.418;2023-03-15T06:12:06;2.10;99.90
12115;DHT22;6121;49.810;6.418;2023-03-15T06:14:32;2.20;99.90
12115;DHT22;6121;49.810;6.418;2023-03-15T06:17:04;2.20;99.90
12115;DHT22;6121;49.810;6.418;2023-03-15T06:19:34;2.30;99.90
12115;DHT22;6121;49.810;6.418;2023-03-15T06:21:59;2.20;99.90
12115;DHT22;6121;49.810;6.418;2023-03-15T06:24:31;2.10;99.90
12115;DHT22;6121;49.810;6.418;2023-03-15T06:26:57;2.10;99.90
12115;DHT22;6121;49.810;6.418;2023-03-15T06:29:23;2.20;99.90
12115;DHT22;6121;49.810;6.418;2023-03-15T06:31:52;2.20;99.90
12115;DHT22;6121;49.810;6.418;2023-03-15T06:34:19;2.10;99.90
12115;DHT22;6121;49.810;6.418;2023-03-15T06:36:46;2.10;99.90
12115;DHT22;6121;49.810;6.418;2023-03-15T06:39:12;2.10;99.90
12115;DHT22;6121;49.810;6.418;2023-03-15T06:41:38;2.20;99.90
12115;DHT22;6121;49.810;6.418;2023-03-15T06:44:10;2.20;99.90
12115;DHT22;6121;49.810;6.418;2023-03-15T06:46:37;2.30;99.90
12115;DHT22;6121;49.810;6.418;2023-03-15T06:49:04;2.20;99.90
12115;DHT22;6121;49.810;6.418;2023-03-15T06:51:30;2.20;99.90
12115;DHT22;6121;49.810;6.418;2023-03-15T06:53:56;2.30;99.90
12115;DHT22;6121;49.810;6.418;2023-03-15T06:56:22;2.20;99.90
12115;DHT22;6121;49.810;6.418;2023-03-15T06:58:48;2.10;99.90
12115;DHT22;6121;49.810;6.418;2023-03-15T07:01:14;2.30;99.90
12115;DHT22;6121;49.810;6.418;2023-03-15T07:03:40;2.20;99.90
12115;DHT22;6121;49.810;6.418;2023-03-15T07:06:07;2.10;99.90
12115;DHT22;6121;49.810;6.418;2023-03-15T07:08:33;2.10;99.90
12115;DHT22;6121;49.810;6.418;2023-03-15T07:10:59;2.20;99.90
12115;DHT22;6121;49.810;6.418;2023-03-15T07:13:25;2.10;99.90
12115;DHT22;6121;49.810;6.418;2023-03-15T07:15:55;2.10;99.90
12115;DHT22;6121;49.810;6.418;2023-03-15T07:18:21;2.10;99.90
12115;DHT22;6121;49.810;6.418;2023-03-15T07:20:57;2.30;99.90
12115;DHT22;6121;49.810;6.418;2023-03-15T07:23:24;2.50;99.90
12115;DHT22;6121;49.810;6.418;2023-03-15T07:25:50;2.60;99.90
12115;DHT22;6121;49.810;6.418;2023-03-15T07:28:17;2.60;99.90
12115;DHT22;6121;49.810;6.418;2023-03-15T07:30:54;2.60;99.90
12115;DHT22;6121;49.810;6.418;2023-03-15T07:33:21;2.70;99.90
12115;DHT22;6121;49.810;6.418;2023-03-15T07:35:48;2.80;99.90
12115;DHT22;6121;49.810;6.418;2023-03-15T07:38:14;2.90;99.90
12115;DHT22;6121;49.810;6.418;2023-03-15T07:40:41;3.00;99.90
12115;DHT22;6121;49.810;6.418;2023-03-15T07:43:07;2.90;99.90
12115;DHT22;6121;49.810;6.418;2023-03-15T07:45:32;2.90;99.90
12115;DHT22;6121;49.810;6.418;2023-03-15T07:47:59;2.90;99.90
12115;DHT22;6121;49.810;6.418;2023-03-15T07:50:26;3.00;99.90
12115;DHT22;6121;49.810;6.418;2023-03-15T07:52:51;3.00;99.90
12115;DHT22;6121;49.810;6.418;2023-03-15T07:55:17;3.10;99.90
12115;DHT22;6121;49.810;6.418;2023-03-15T07:57:43;3.10;99.90
12115;DHT22;6121;49.810;6.418;2023-03-15T08:00:09;3.20;99.90
12115;DHT22;6121;49.810;6.418;2023-03-15T08:02:38;3.30;99.90
12115;DHT22;6121;49.810;6.418;2023-03-15T08:05:05;3.40;99.90
12115;DHT22;6121;49.810;6.418;2023-03-15T08:07:31;3.50;99.90
12115;DHT22;6121;49.810;6.418;2023-03-15T08:09:57;3.50;99.90
12115;DHT22;6121;49.810;6.418;2023-03-15T08:12:24;3.60;99.90
12115;DHT22;6121;49.810;6.418;2023-03-15T08:14:50;3.70;99.90
12115;DHT22;6121;49.810;6.418;2023-03-15T08:17:16;3.70;99.90
12115;DHT22;6121;49.810;6.418;2023-03-15T08:19:43;3.70;99.90
12115;DHT22;6121;49.810;6.418;2023-03-15T08:22:09;3.60;99.90
12115;DHT22;6121;49.810;6.418;2023-03-15T08:24:36;3.70;99.90
12115;DHT22;6121;49.810;6.418;2023-03-15T08:27:03;3.80;99.90
12115;DHT22;6121;49.810;6.418;2023-03-15T08:29:30;3.90;99.90
12115;DHT22;6121;49.810;6.418;2023-03-15T08:31:56;3.90;99.90
12115;DHT22;6121;49.810;6.418;2023-03-15T08:34:23;4.00;99.90
12115;DHT22;6121;49.810;6.418;2023-03-15T08:36:49;3.90;99.90
12115;DHT22;6121;49.810;6.418;2023-03-15T08:39:16;3.90;99.90
12115;DHT22;6121;49.810;6.418;2023-03-15T08:41:42;4.00;99.90
12115;DHT22;6121;49.810;6.418;2023-03-15T08:44:08;4.10;99.90
12115;DHT22;6121;49.810;6.418;2023-03-15T08:46:34;4.20;99.90
12115;DHT22;6121;49.810;6.418;2023-03-15T08:49:01;4.40;99.90
12115;DHT22;6121;49.810;6.418;2023-03-15T08:51:27;4.50;99.90
12115;DHT22;6121;49.810;6.418;2023-03-15T08:53:54;4.70;99.90
12115;DHT22;6121;49.810;6.418;2023-03-15T08:56:20;4.60;99.90
12115;DHT22;6121;49.810;6.418;2023-03-15T08:58:46;4.50;99.90
12115;DHT22;6121;49.810;6.418;2023-03-15T09:01:13;4.50;99.90
12115;DHT22;6121;49.810;6.418;2023-03-15T09:03:40;4.70;99.90
12115;DHT22;6121;49.810;6.418;2023-03-15T09:06:08;4.80;99.90
12115;DHT22;6121;49.810;6.418;2023-03-15T09:08:34;5.20;99.90
12115;DHT22;6121;49.810;6.418;2023-03-15T09:11:00;5.40;99.90
12115;DHT22;6121;49.810;6.418;2023-03-15T09:13:26;5.20;99.90
12115;DHT22;6121;49.810;6.418;2023-03-15T09:15:53;5.20;99.90
12115;DHT22;6121;49.810;6.418;2023-03-15T09:18:20;5.00;99.90
12115;DHT22;6121;49.810;6.418;2023-03-15T09:20:47;4.90;99.90
12115;DHT22;6121;49.810;6.418;2023-03-15T09:23:13;4.80;99.90
12115;DHT22;6121;49.810;6.418;2023-03-15T09:25:39;4.90;99.90
12115;DHT22;6121;49.810;6.418;2023-03-15T09:28:08;5.30;99.90
12115;DHT22;6121;49.810;6.418;2023-03-15T09:30:35;5.30;99.90
12115;DHT22;6121;49.810;6.418;2023-03-15T09:33:01;5.30;99.90
12115;DHT22;6121;49.810;6.418;2023-03-15T09:35:27;5.50;99.90
12115;DHT22;6121;49.810;6.418;2023-03-15T09:37:53;5.80;99.90
12115;DHT22;6121;49.810;6.418;2023-03-15T09:40:28;5.90;99.90
12115;DHT22;6121;49.810;6.418;2023-03-15T09:48:23;5.50;99.90
12115;DHT22;6121;49.810;6.418;2023-03-15T09:51:15;5.60;99.90
12115;DHT22;6121;49.810;6.418;2023-03-15T09:53:53;5.90;99.90
12115;DHT22;6121;49.810;6.418;2023-03-15T09:58:52;6.20;99.90
12115;DHT22;6121;49.810;6.418;2023-03-15T10:01:22;6.30;99.90
12115;DHT22;6121;49.810;6.418;2023-03-15T10:03:52;6.50;99.90
12115;DHT22;6121;49.810;6.418;2023-03-15T10:06:19;6.40;99.90
12115;DHT22;6121;49.810;6.418;2023-03-15T10:08:50;6.50;99.90
12115;DHT22;6121;49.810;6.418;2023-03-15T10:11:41;9.70;99.90
12115;DHT22;6121;49.810;6.418;2023-03-15T10:14:32;10.70;99.90
12115;DHT22;6121;49.810;6.418;2023-03-15T10:17:06;10.00;99.90
12115;DHT22;6121;49.810;6.418;2023-03-15T10:19:48;8.80;99.90
12115;DHT22;6121;49.810;6.418;2023-03-15T10:22:35;9.90;99.90
12115;DHT22;6121;49.810;6.418;2023-03-15T10:25:21;15.70;99.90
12115;DHT22;6121;49.810;6.418;2023-03-15T10:27:56;12.60;99.90
12115;DHT22;6121;49.810;6.418;2023-03-15T10:30:29;9.90;99.90
12115;DHT22;6121;49.810;6.418;2023-03-15T10:33:29;10.60;99.90
12115;DHT22;6121;49.810;6.418;2023-03-15T10:35:57;14.90;99.90
12115;DHT22;6121;49.810;6.418;2023-03-15T10:38:24;18.30;99.60
12115;DHT22;6121;49.810;6.418;2023-03-15T10:40:58;15.10;96.30
12115;DHT22;6121;49.810;6.418;2023-03-15T10:43:27;17.00;98.50
12115;DHT22;6121;49.810;6.418;2023-03-15T10:46:13;18.60;94.30
12115;DHT22;6121;49.810;6.418;2023-03-15T10:48:56;20.00;91.80
12115;DHT22;6121;49.810;6.418;2023-03-15T10:51:31;23.50;86.90
12115;DHT22;6121;49.810;6.418;2023-03-15T10:54:18;22.40;79.00
12115;DHT22;6121;49.810;6.418;2023-03-15T10:59:24;18.00;78.60
12115;DHT22;6121;49.810;6.418;2023-03-15T11:01:52;15.00;85.00
12115;DHT22;6121;49.810;6.418;2023-03-15T11:04:22;13.30;90.40
12115;DHT22;6121;49.810;6.418;2023-03-15T11:09:26;11.60;92.60
12115;DHT22;6121;49.810;6.418;2023-03-15T11:12:06;11.20;93.20
12115;DHT22;6121;49.810;6.418;2023-03-15T11:17:02;10.30;94.90
12115;DHT22;6121;49.810;6.418;2023-03-15T11:19:31;10.20;96.00
12115;DHT22;6121;49.810;6.418;2023-03-15T11:22:00;9.80;96.40
12115;DHT22;6121;49.810;6.418;2023-03-15T11:24:32;9.60;97.40
12115;DHT22;6121;49.810;6.418;2023-03-15T11:27:00;9.60;97.80
12115;DHT22;6121;49.810;6.418;2023-03-15T11:29:32;9.50;98.20
12115;DHT22;6121;49.810;6.418;2023-03-15T11:32:00;9.50;98.40
12115;DHT22;6121;49.810;6.418;2023-03-15T11:34:43;8.90;98.40
12115;DHT22;6121;49.810;6.418;2023-03-15T11:37:14;9.20;99.50
12115;DHT22;6121;49.810;6.418;2023-03-15T11:39:51;9.10;99.80
12115;DHT22;6121;49.810;6.418;2023-03-15T11:42:27;11.30;99.00
12115;DHT22;6121;49.810;6.418;2023-03-15T11:45:00;11.20;97.70
12115;DHT22;6121;49.810;6.418;2023-03-15T11:50:13;10.70;95.60
12115;DHT22;6121;49.810;6.418;2023-03-15T11:52:39;10.40;95.90
12115;DHT22;6121;49.810;6.418;2023-03-15T11:55:16;10.10;96.60
12115;DHT22;6121;49.810;6.418;2023-03-15T11:57:47;10.00;96.60
12115;DHT22;6121;49.810;6.418;2023-03-15T12:00:24;9.70;98.00
12115;DHT22;6121;49.810;6.418;2023-03-15T12:02:56;9.50;98.80
12115;DHT22;6121;49.810;6.418;2023-03-15T12:05:42;9.30;99.30
12115;DHT22;6121;49.810;6.418;2023-03-15T12:08:40;12.10;97.70
12115;DHT22;6121;49.810;6.418;2023-03-15T12:11:38;18.10;91.40
12115;DHT22;6121;49.810;6.418;2023-03-15T12:14:19;17.00;80.90
12115;DHT22;6121;49.810;6.418;2023-03-15T12:16:45;15.30;83.70
12115;DHT22;6121;49.810;6.418;2023-03-15T12:19:17;13.50;86.10
12115;DHT22;6121;49.810;6.418;2023-03-15T12:21:52;12.10;88.30
12115;DHT22;6121;49.810;6.418;2023-03-15T12:24:29;11.40;89.20
12115;DHT22;6121;49.810;6.418;2023-03-15T12:27:18;10.90;89.50
12115;DHT22;6121;49.810;6.418;2023-03-15T12:29:45;10.40;90.50
12115;DHT22;6121;49.810;6.418;2023-03-15T12:32:13;10.30;91.20
12115;DHT22;6121;49.810;6.418;2023-03-15T12:34:54;10.30;91.50
12115;DHT22;6121;49.810;6.418;2023-03-15T12:37:23;11.20;91.80
12115;DHT22;6121;49.810;6.418;2023-03-15T12:39:59;11.00;91.40
12115;DHT22;6121;49.810;6.418;2023-03-15T12:55:54;10.90;90.80
12115;DHT22;6121;49.810;6.418;2023-03-15T12:58:26;10.90;90.40
12115;DHT22;6121;49.810;6.418;2023-03-15T13:00:53;11.20;87.30
12115;DHT22;6121;49.810;6.418;2023-03-15T13:03:21;11.40;86.80
12115;DHT22;6121;49.810;6.418;2023-03-15T13:08:55;11.50;87.40
12115;DHT22;6121;49.810;6.418;2023-03-15T13:11:37;11.50;88.40
12115;DHT22;6121;49.810;6.418;2023-03-15T13:14:25;11.50;87.00
12115;DHT22;6121;49.810;6.418;2023-03-15T13:17:27;11.40;88.40
12115;DHT22;6121;49.810;6.418;2023-03-15T13:25:46;10.90;86.50
12115;DHT22;6121;49.810;6.418;2023-03-15T13:29:08;10.90;85.80
12115;DHT22;6121;49.810;6.418;2023-03-15T13:31:16;11.00;88.40
12115;DHT22;6121;49.810;6.418;2023-03-15T13:33:50;10.90;86.20
12115;DHT22;6121;49.810;6.418;2023-03-15T13:36:44;10.80;83.60
12115;DHT22;6121;49.810;6.418;2023-03-15T13:39:20;10.60;83.50
12115;DHT22;6121;49.810;6.418;2023-03-15T13:41:48;10.60;84.80
12115;DHT22;6121;49.810;6.418;2023-03-15T13:44:19;10.60;83.80
12115;DHT22;6121;49.810;6.418;2023-03-15T13:46:49;10.60;82.80
12115;DHT22;6121;49.810;6.418;2023-03-15T13:49:16;10.60;85.00
12115;DHT22;6121;49.810;6.418;2023-03-15T13:51:44;10.50;85.30
12115;DHT22;6121;49.810;6.418;2023-03-15T13:57:01;10.40;83.60
12115;DHT22;6121;49.810;6.418;2023-03-15T14:02:47;10.30;84.90
12115;DHT22;6121;49.810;6.418;2023-03-15T14:05:25;10.30;85.30
12115;DHT22;6121;49.810;6.418;2023-03-15T14:07:59;10.40;85.70
12115;DHT22;6121;49.810;6.418;2023-03-15T14:10:32;10.20;84.50
12115;DHT22;6121;49.810;6.418;2023-03-15T14:16:11;10.00;84.80
12115;DHT22;6121;49.810;6.418;2023-03-15T14:18:40;10.10;85.00
12115;DHT22;6121;49.810;6.418;2023-03-15T14:21:19;10.00;86.60
12115;DHT22;6121;49.810;6.418;2023-03-15T14:23:47;10.00;85.90
12115;DHT22;6121;49.810;6.418;2023-03-15T14:26:22;9.80;86.90
12115;DHT22;6121;49.810;6.418;2023-03-15T14:29:11;9.90;85.80
12115;DHT22;6121;49.810;6.418;2023-03-15T14:31:47;9.90;86.20
12115;DHT22;6121;49.810;6.418;2023-03-15T14:36:50;9.50;87.90
12115;DHT22;6121;49.810;6.418;2023-03-15T14:39:39;9.60;88.30
12115;DHT22;6121;49.810;6.418;2023-03-15T14:42:09;9.50;89.90
12115;DHT22;6121;49.810;6.418;2023-03-15T14:44:35;9.60;89.50
12115;DHT22;6121;49.810;6.418;2023-03-15T14:47:05;9.70;89.30
12115;DHT22;6121;49.810;6.418;2023-03-15T14:49:36;9.60;88.10
12115;DHT22;6121;49.810;6.418;2023-03-15T14:52:03;9.60;89.00
12115;DHT22;6121;49.810;6.418;2023-03-15T14:54:30;9.70;88.30
12115;DHT22;6121;49.810;6.418;2023-03-15T14:56:57;9.70;87.50
12115;DHT22;6121;49.810;6.418;2023-03-15T14:59:23;9.70;87.70
12115;DHT22;6121;49.810;6.418;2023-03-15T15:01:52;9.90;87.50
12115;DHT22;6121;49.810;6.418;2023-03-15T15:04:19;9.90;87.40
12115;DHT22;6121;49.810;6.418;2023-03-15T15:06:46;9.90;87.60
12115;DHT22;6121;49.810;6.418;2023-03-15T15:09:27;10.00;86.40
12115;DHT22;6121;49.810;6.418;2023-03-15T15:11:54;10.00;86.30
12115;DHT22;6121;49.810;6.418;2023-03-15T15:14:20;10.00;87.80
12115;DHT22;6121;49.810;6.418;2023-03-15T15:16:47;9.90;89.00
12115;DHT22;6121;49.810;6.418;2023-03-15T15:19:14;9.90;89.10
12115;DHT22;6121;49.810;6.418;2023-03-15T15:21:41;10.10;86.40
12115;DHT22;6121;49.810;6.418;2023-03-15T15:24:14;10.20;85.20
12115;DHT22;6121;49.810;6.418;2023-03-15T15:26:40;10.10;86.00
12115;DHT22;6121;49.810;6.418;2023-03-15T15:29:13;10.10;85.80
12115;DHT22;6121;49.810;6.418;2023-03-15T15:31:40;10.00;86.90
12115;DHT22;6121;49.810;6.418;2023-03-15T15:34:06;10.10;87.80
12115;DHT22;6121;49.810;6.418;2023-03-15T15:36:35;10.10;88.10
12115;DHT22;6121;49.810;6.418;2023-03-15T15:39:02;10.20;87.10
12115;DHT22;6121;49.810;6.418;2023-03-15T15:41:31;10.20;86.40
12115;DHT22;6121;49.810;6.418;2023-03-15T15:43:58;10.20;85.60
12115;DHT22;6121;49.810;6.418;2023-03-15T15:46:24;10.10;85.60
12115;DHT22;6121;49.810;6.418;2023-03-15T15:48:50;10.00;85.10
12115;DHT22;6121;49.810;6.418;2023-03-15T15:51:40;10.10;84.70
12115;DHT22;6121;49.810;6.418;2023-03-15T15:54:25;9.90;87.10
12115;DHT22;6121;49.810;6.418;2023-03-15T15:56:57;9.70;86.90
12115;DHT22;6121;49.810;6.418;2023-03-15T15:59:25;9.60;87.40
12115;DHT22;6121;49.810;6.418;2023-03-15T16:01:52;9.80;87.90
12115;DHT22;6121;49.810;6.418;2023-03-15T16:04:19;9.80;87.30
12115;DHT22;6121;49.810;6.418;2023-03-15T16:07:07;9.90;88.10
12115;DHT22;6121;49.810;6.418;2023-03-15T16:09:35;9.80;88.80
12115;DHT22;6121;49.810;6.418;2023-03-15T16:12:02;9.80;89.50
12115;DHT22;6121;49.810;6.418;2023-03-15T16:14:28;9.80;89.20
12115;DHT22;6121;49.810;6.418;2023-03-15T16:16:54;9.60;88.30
12115;DHT22;6121;49.810;6.418;2023-03-15T16:19:19;9.50;87.60
12115;DHT22;6121;49.810;6.418;2023-03-15T16:21:47;9.50;88.70
12115;DHT22;6121;49.810;6.418;2023-03-15T16:26:40;9.40;88.50
12115;DHT22;6121;49.810;6.418;2023-03-15T16:29:37;9.20;89.00
12115;DHT22;6121;49.810;6.418;2023-03-15T16:32:04;9.20;89.60
12115;DHT22;6121;49.810;6.418;2023-03-15T16:34:31;9.20;90.00
12115;DHT22;6121;49.810;6.418;2023-03-15T16:36:59;9.30;90.30
12115;DHT22;6121;49.810;6.418;2023-03-15T16:39:26;9.30;90.10
12115;DHT22;6121;49.810;6.418;2023-03-15T16:41:53;9.20;90.30
12115;DHT22;6121;49.810;6.418;2023-03-15T16:44:21;9.10;90.00
12115;DHT22;6121;49.810;6.418;2023-03-15T16:46:47;9.00;90.50
12115;DHT22;6121;49.810;6.418;2023-03-15T16:49:13;8.90;90.40
12115;DHT22;6121;49.810;6.418;2023-03-15T16:51:44;9.00;90.60
12115;DHT22;6121;49.810;6.418;2023-03-15T16:54:10;9.00;90.90
12115;DHT22;6121;49.810;6.418;2023-03-15T16:56:38;8.80;91.00
12115;DHT22;6121;49.810;6.418;2023-03-15T16:59:04;8.70;91.80
12115;DHT22;6121;49.810;6.418;2023-03-15T17:01:30;8.60;92.00
12115;DHT22;6121;49.810;6.418;2023-03-15T17:04:00;8.40;91.50
12115;DHT22;6121;49.810;6.418;2023-03-15T17:06:26;8.30;92.00
12115;DHT22;6121;49.810;6.418;2023-03-15T17:09:07;8.20;91.80
12115;DHT22;6121;49.810;6.418;2023-03-15T17:11:41;8.20;92.40
12115;DHT22;6121;49.810;6.418;2023-03-15T17:14:14;8.10;92.80
12115;DHT22;6121;49.810;6.418;2023-03-15T17:16:40;8.30;93.30
12115;DHT22;6121;49.810;6.418;2023-03-15T17:19:11;8.30;93.30
12115;DHT22;6121;49.810;6.418;2023-03-15T17:21:38;8.40;93.30
12115;DHT22;6121;49.810;6.418;2023-03-15T17:24:04;8.30;93.20
12115;DHT22;6121;49.810;6.418;2023-03-15T17:26:31;8.10;93.70
12115;DHT22;6121;49.810;6.418;2023-03-15T17:28:59;8.10;93.70